Terminal Aerodrome Forecast
Issued by NWS Sioux Falls, SD

Home | Current Version | Previous Version | Text Only | Print | Product List | Glossary On
Versions: 1 2 3 4 5 6 7 8 9 10 11 12 13 14 15 16 17 18 19 20 21 22 23 24 25 26 27 28
000
FTUS43 KFSD 102300
TAFSUX
TAF
KSUX 102320Z 1100/1124 16015G23KT P6SM SCT040
     FM110200 15012KT P6SM SCT040 BKN150
     FM111500 17007KT P6SM SCT020 OVC120=

USA.gov is the U.S. government's official web portal to all federal, state and local government web resources and services.